Time;durP1;ratioP1;P1;durP2;ratioP2;P2;SDS_P1;SDS_P2;PMS_P1;PMS_P2;Temp;Humidity;BMP_temperature;BMP_pressure;BME280_temperature;BME280_humidity;BME280_pressure;Samples;Min_cycle;Max_cycle;Signal;HPM_P1;HPM_P2
2022/11/24 00:02:01;;;;;;;;;4.00;3.00;;;;;;;;5107334;27;45679;-70
2022/11/24 00:04:27;;;;;;;;;7.00;3.00;;;;;;;;5107447;27;45737;-73
2022/11/24 00:06:52;;;;;;;;;5.00;3.00;;;;;;;;5105975;27;45451;-71
2022/11/24 00:09:17;;;;;;;;;4.33;3.00;;;;;;;;5111804;27;45308;-71
2022/11/24 00:11:43;;;;;;;;;5.33;5.00;;;;;;;;5106130;27;45866;-70
2022/11/24 00:14:08;;;;;;;;;8.00;4.00;;;;;;;;5109131;27;45512;-72
2022/11/24 00:16:35;;;;;;;;;6.00;3.67;;;;;;;;5112499;27;46006;-72
2022/11/24 00:19:01;;;;;;;;;5.67;3.00;;;;;;;;5104885;27;45422;-70
2022/11/24 00:21:27;;;;;;;;;5.33;2.00;;;;;;;;5103279;27;45443;-71
2022/11/24 00:23:53;;;;;;;;;5.33;3.00;;;;;;;;5102424;27;45529;-71
2022/11/24 00:26:20;;;;;;;;;4.00;2.00;;;;;;;;5107555;27;45670;-71
2022/11/24 00:28:46;;;;;;;;;5.67;2.67;;;;;;;;5111729;27;46355;-71
2022/11/24 00:31:14;;;;;;;;;6.33;3.33;;;;;;;;5110980;27;45442;-70
2022/11/24 00:33:39;;;;;;;;;4.00;3.33;;;;;;;;5099507;27;45397;-70
2022/11/24 00:36:04;;;;;;;;;11.67;6.00;;;;;;;;5105637;27;45591;-70
2022/11/24 00:38:30;;;;;;;;;7.33;4.33;;;;;;;;5091038;27;47931;-70
2022/11/24 00:40:55;;;;;;;;;8.67;3.67;;;;;;;;5086646;27;45485;-71
2022/11/24 00:43:20;;;;;;;;;5.00;3.00;;;;;;;;5085481;27;45316;-71
2022/11/24 00:45:45;;;;;;;;;7.67;2.33;;;;;;;;5076229;27;45823;-70
2022/11/24 00:48:11;;;;;;;;;5.00;3.00;;;;;;;;5080859;27;46548;-70
2022/11/24 00:50:36;;;;;;;;;5.00;2.00;;;;;;;;5081036;27;45313;-71
2022/11/24 00:53:01;;;;;;;;;3.33;3.00;;;;;;;;5088006;27;45284;-69
2022/11/24 00:55:26;;;;;;;;;3.67;2.00;;;;;;;;5085547;27;45615;-70
2022/11/24 00:57:52;;;;;;;;;12.67;8.33;;;;;;;;5078642;27;45695;-70
2022/11/24 01:00:17;;;;;;;;;3.33;3.33;;;;;;;;5082160;27;45285;-70
2022/11/24 01:02:42;;;;;;;;;5.00;3.00;;;;;;;;5080112;27;45810;-71
2022/11/24 01:05:08;;;;;;;;;3.00;2.00;;;;;;;;5082742;27;45780;-72
2022/11/24 01:07:33;;;;;;;;;6.00;2.67;;;;;;;;5081572;27;46426;-72
2022/11/24 01:09:58;;;;;;;;;3.67;1.00;;;;;;;;5085154;27;45510;-70
2022/11/24 01:12:24;;;;;;;;;3.00;2.00;;;;;;;;5082354;27;45456;-70
2022/11/24 01:14:49;;;;;;;;;2.00;1.00;;;;;;;;5084012;27;45413;-72
2022/11/24 01:17:14;;;;;;;;;1.33;1.00;;;;;;;;5090083;27;45673;-70
2022/11/24 01:19:40;;;;;;;;;2.33;1.67;;;;;;;;5083475;27;45762;-68
2022/11/24 01:22:05;;;;;;;;;3.33;1.00;;;;;;;;5083195;27;45439;-69
2022/11/24 01:24:30;;;;;;;;;3.00;2.00;;;;;;;;5079815;27;45951;-70
2022/11/24 01:26:55;;;;;;;;;0.00;0.00;;;;;;;;5074909;27;46702;-72
2022/11/24 01:29:21;;;;;;;;;3.33;1.00;;;;;;;;5109291;27;45763;-72
2022/11/24 01:31:46;;;;;;;;;1.00;1.00;;;;;;;;5081597;27;45756;-71
2022/11/24 01:34:12;;;;;;;;;1.00;0.33;;;;;;;;5078429;27;45727;-72
2022/11/24 01:36:37;;;;;;;;;2.00;1.00;;;;;;;;5083212;27;45397;-72
2022/11/24 01:39:03;;;;;;;;;0.33;0.33;;;;;;;;5095729;27;45703;-72
2022/11/24 01:41:28;;;;;;;;;2.00;1.00;;;;;;;;5098546;27;45723;-68
2022/11/24 01:43:54;;;;;;;;;3.00;1.00;;;;;;;;5107434;27;45898;-71
2022/11/24 01:46:25;;;;;;;;;2.00;1.00;;;;;;;;5115077;27;45500;-70
2022/11/24 01:49:00;;;;;;;;;2.33;0.00;;;;;;;;5107717;27;45715;-71
2022/11/24 01:51:27;;;;;;;;;0.00;0.00;;;;;;;;5107432;27;45733;-72
2022/11/24 01:54:04;;;;;;;;;2.67;1.67;;;;;;;;5109006;27;45816;-69
2022/11/24 01:56:32;;;;;;;;;2.33;0.67;;;;;;;;5096974;27;47288;-72
2022/11/24 01:59:00;;;;;;;;;5.67;0.33;;;;;;;;5117850;27;45379;-69
2022/11/24 02:01:25;;;;;;;;;2.00;0.00;;;;;;;;5093281;27;45703;-70
2022/11/24 02:03:51;;;;;;;;;2.00;0.00;;;;;;;;5110434;27;45932;-70
2022/11/24 02:06:21;;;;;;;;;3.00;0.00;;;;;;;;5091802;27;46321;-67
2022/11/24 02:08:55;;;;;;;;;0.67;0.67;;;;;;;;5098932;27;45694;-65
2022/11/24 02:11:22;;;;;;;;;0.00;0.00;;;;;;;;5104060;27;45390;-71
2022/11/24 02:13:49;;;;;;;;;0.00;0.00;;;;;;;;5212374;22;45504;-65
2022/11/24 02:16:14;;;;;;;;;0.00;0.00;;;;;;;;5109092;27;46478;-66
2022/11/24 02:18:40;;;;;;;;;0.00;0.00;;;;;;;;5100467;27;45298;-65
2022/11/24 02:21:06;;;;;;;;;1.00;0.00;;;;;;;;5102986;27;45908;-65
2022/11/24 02:23:43;;;;;;;;;0.00;0.00;;;;;;;;5103904;27;45764;-66
2022/11/24 02:26:14;;;;;;;;;0.00;0.00;;;;;;;;5106630;27;45741;-65
2022/11/24 02:28:40;;;;;;;;;1.00;0.00;;;;;;;;5113278;27;45544;-65
2022/11/24 02:31:05;;;;;;;;;0.00;0.00;;;;;;;;5101771;27;45404;-67
2022/11/24 02:33:32;;;;;;;;;2.00;1.00;;;;;;;;5111918;27;45337;-65
2022/11/24 02:35:57;;;;;;;;;0.33;0.33;;;;;;;;5110667;27;45721;-65
2022/11/24 02:38:32;;;;;;;;;0.00;0.00;;;;;;;;5101159;27;45738;-66
2022/11/24 02:40:59;;;;;;;;;2.00;1.00;;;;;;;;5094648;27;45512;-65
2022/11/24 02:43:24;;;;;;;;;0.00;0.00;;;;;;;;5093064;27;45413;-66
2022/11/24 02:45:50;;;;;;;;;0.67;0.00;;;;;;;;5095880;27;45386;-66
2022/11/24 02:48:15;;;;;;;;;0.00;0.00;;;;;;;;5106981;27;45657;-65
2022/11/24 02:50:40;;;;;;;;;1.00;1.00;;;;;;;;5111929;27;45640;-64
2022/11/24 02:53:06;;;;;;;;;0.00;0.00;;;;;;;;5120747;27;45471;-66
2022/11/24 02:55:31;;;;;;;;;1.00;0.00;;;;;;;;5117002;27;46566;-65
2022/11/24 02:57:57;;;;;;;;;0.67;0.67;;;;;;;;5113146;27;45700;-66
2022/11/24 03:00:22;;;;;;;;;0.00;0.00;;;;;;;;5113425;27;45454;-66
2022/11/24 03:02:47;;;;;;;;;0.00;0.00;;;;;;;;5112877;27;45435;-65
2022/11/24 03:05:12;;;;;;;;;1.67;1.00;;;;;;;;5094931;27;47105;-65
2022/11/24 03:07:38;;;;;;;;;2.00;2.00;;;;;;;;5113534;27;45628;-65
2022/11/24 03:10:03;;;;;;;;;2.00;0.00;;;;;;;;5113215;27;45750;-65
2022/11/24 03:12:29;;;;;;;;;1.00;1.00;;;;;;;;5113048;27;45714;-65
2022/11/24 03:14:54;;;;;;;;;2.67;1.00;;;;;;;;5112408;27;45470;-66
2022/11/24 03:17:19;;;;;;;;;2.00;1.00;;;;;;;;5101250;27;45728;-66
2022/11/24 03:19:44;;;;;;;;;3.33;2.00;;;;;;;;5104817;27;45348;-66
2022/11/24 03:22:11;;;;;;;;;2.00;0.67;;;;;;;;5108738;27;45604;-64
2022/11/24 03:24:37;;;;;;;;;2.00;2.00;;;;;;;;5074841;27;47659;-67
2022/11/24 03:27:02;;;;;;;;;2.33;1.00;;;;;;;;5093052;27;45612;-65
2022/11/24 03:29:27;;;;;;;;;3.00;1.00;;;;;;;;5092503;27;45788;-64
2022/11/24 03:31:53;;;;;;;;;1.00;0.33;;;;;;;;5105795;27;46177;-65
2022/11/24 03:34:18;;;;;;;;;2.67;1.00;;;;;;;;5101023;27;46260;-66
2022/11/24 03:36:43;;;;;;;;;1.00;1.00;;;;;;;;5103190;27;45538;-65
2022/11/24 03:39:08;;;;;;;;;1.00;1.00;;;;;;;;5100615;27;45470;-65
2022/11/24 03:41:33;;;;;;;;;1.67;0.00;;;;;;;;5111137;27;45544;-64
2022/11/24 03:43:59;;;;;;;;;1.00;1.00;;;;;;;;5087656;27;48365;-63
2022/11/24 03:46:24;;;;;;;;;1.00;1.00;;;;;;;;5106077;27;45398;-63
2022/11/24 03:48:49;;;;;;;;;1.00;0.00;;;;;;;;5101343;27;45316;-65
2022/11/24 03:51:14;;;;;;;;;0.00;0.00;;;;;;;;5092227;27;45642;-66
2022/11/24 03:53:40;;;;;;;;;5.00;1.00;;;;;;;;5116909;27;45293;-65
2022/11/24 03:56:05;;;;;;;;;4.00;2.00;;;;;;;;5109561;27;45527;-66
2022/11/24 03:58:30;;;;;;;;;2.00;0.33;;;;;;;;5115473;27;45325;-66
2022/11/24 04:00:56;;;;;;;;;1.67;1.67;;;;;;;;5109266;27;45307;-64
2022/11/24 04:03:21;;;;;;;;;1.00;0.67;;;;;;;;5115785;27;45747;-66
2022/11/24 04:05:47;;;;;;;;;1.33;1.33;;;;;;;;5105507;27;45674;-65
2022/11/24 04:08:12;;;;;;;;;1.00;0.00;;;;;;;;5111339;27;45631;-66
2022/11/24 04:10:38;;;;;;;;;2.67;2.00;;;;;;;;5110950;27;45866;-67
2022/11/24 04:13:10;;;;;;;;;5.67;1.67;;;;;;;;5097583;27;47471;-65
2022/11/24 04:15:37;;;;;;;;;1.00;1.00;;;;;;;;5111009;27;45396;-66
2022/11/24 04:18:02;;;;;;;;;2.33;0.33;;;;;;;;5110768;27;45570;-64
2022/11/24 04:20:27;;;;;;;;;3.00;1.33;;;;;;;;5086935;27;45485;-64
2022/11/24 04:22:53;;;;;;;;;1.00;1.00;;;;;;;;5115914;27;45604;-63
2022/11/24 04:25:18;;;;;;;;;0.33;0.00;;;;;;;;5094661;27;45607;-64
2022/11/24 04:27:43;;;;;;;;;1.00;1.00;;;;;;;;5103091;27;45356;-64
2022/11/24 04:30:09;;;;;;;;;1.67;1.00;;;;;;;;5109340;27;45754;-65
2022/11/24 04:32:34;;;;;;;;;3.33;1.00;;;;;;;;5108737;27;45455;-67
2022/11/24 04:34:59;;;;;;;;;1.00;1.00;;;;;;;;5114883;27;45331;-65
2022/11/24 04:37:25;;;;;;;;;2.00;2.00;;;;;;;;5103464;27;44742;-65
2022/11/24 04:39:50;;;;;;;;;1.00;1.00;;;;;;;;5114973;27;45647;-64
2022/11/24 04:42:15;;;;;;;;;4.00;1.67;;;;;;;;5094548;27;46338;-65
2022/11/24 04:44:40;;;;;;;;;2.00;0.67;;;;;;;;5107834;27;45777;-65
2022/11/24 04:47:06;;;;;;;;;1.67;1.67;;;;;;;;5095448;27;45626;-65
2022/11/24 04:49:31;;;;;;;;;3.00;0.00;;;;;;;;5099884;27;45769;-65
2022/11/24 04:51:56;;;;;;;;;2.33;2.00;;;;;;;;5097387;27;46446;-65
2022/11/24 04:54:21;;;;;;;;;1.00;1.00;;;;;;;;5106910;27;45716;-67
2022/11/24 04:56:49;;;;;;;;;1.33;0.00;;;;;;;;5106490;27;45748;-65
2022/11/24 04:59:14;;;;;;;;;1.33;1.00;;;;;;;;5107852;27;45889;-66
2022/11/24 05:01:43;;;;;;;;;6.33;2.00;;;;;;;;5104813;27;45780;-64
2022/11/24 05:04:10;;;;;;;;;5.33;2.00;;;;;;;;5100566;27;45675;-64
2022/11/24 05:06:35;;;;;;;;;1.67;1.67;;;;;;;;5095703;27;45436;-65
2022/11/24 05:09:00;;;;;;;;;3.00;2.00;;;;;;;;5113939;27;45856;-65
2022/11/24 05:11:26;;;;;;;;;4.00;0.67;;;;;;;;5076329;27;47028;-65
2022/11/24 05:13:51;;;;;;;;;0.67;0.00;;;;;;;;5108096;27;45471;-64
2022/11/24 05:16:17;;;;;;;;;2.33;2.00;;;;;;;;5107942;27;45341;-65
2022/11/24 05:18:42;;;;;;;;;3.00;1.33;;;;;;;;5107512;27;45603;-66
2022/11/24 05:21:07;;;;;;;;;0.33;0.33;;;;;;;;5086649;27;47335;-66
2022/11/24 05:23:32;;;;;;;;;2.33;0.67;;;;;;;;5079031;27;45994;-66
2022/11/24 05:25:59;;;;;;;;;2.00;0.00;;;;;;;;5105114;27;45428;-65
2022/11/24 05:28:24;;;;;;;;;6.00;2.00;;;;;;;;5093490;27;45950;-65
2022/11/24 05:30:49;;;;;;;;;4.00;0.67;;;;;;;;5106883;27;45825;-64
2022/11/24 05:33:17;;;;;;;;;3.67;2.67;;;;;;;;5095569;27;45996;-65
2022/11/24 05:35:43;;;;;;;;;6.00;2.67;;;;;;;;5082430;27;45763;-65
2022/11/24 05:38:08;;;;;;;;;1.33;1.33;;;;;;;;5077175;27;46580;-66
2022/11/24 05:40:33;;;;;;;;;7.33;3.33;;;;;;;;5083330;27;47800;-66
2022/11/24 05:42:59;;;;;;;;;2.00;2.00;;;;;;;;5097463;27;45370;-65
2022/11/24 05:45:24;;;;;;;;;1.00;1.00;;;;;;;;5096349;27;45684;-65
2022/11/24 05:47:50;;;;;;;;;2.33;1.67;;;;;;;;5110165;27;45701;-65
2022/11/24 05:50:16;;;;;;;;;2.33;2.33;;;;;;;;5095901;27;46497;-66
2022/11/24 05:52:42;;;;;;;;;3.33;2.00;;;;;;;;5089987;27;45470;-67
2022/11/24 05:55:07;;;;;;;;;3.67;1.00;;;;;;;;5092437;27;45578;-65
2022/11/24 05:57:33;;;;;;;;;8.33;4.00;;;;;;;;5112935;27;45408;-73
2022/11/24 05:59:58;;;;;;;;;3.33;1.00;;;;;;;;5112643;27;46192;-72
2022/11/24 06:02:23;;;;;;;;;2.00;2.00;;;;;;;;5095088;27;45851;-70
2022/11/24 06:04:49;;;;;;;;;8.00;4.33;;;;;;;;5107069;27;45775;-71
2022/11/24 06:07:14;;;;;;;;;2.00;1.00;;;;;;;;5113311;27;45539;-74
2022/11/24 06:09:40;;;;;;;;;3.00;1.00;;;;;;;;5112288;27;45678;-70
2022/11/24 06:12:06;;;;;;;;;3.67;3.00;;;;;;;;5095539;27;46064;-71
2022/11/24 06:14:31;;;;;;;;;1.33;1.33;;;;;;;;5111100;27;45778;-71
2022/11/24 06:16:56;;;;;;;;;7.33;1.67;;;;;;;;5107092;27;45349;-77
2022/11/24 06:19:22;;;;;;;;;2.00;1.00;;;;;;;;5109191;27;45400;-75
2022/11/24 06:21:47;;;;;;;;;3.67;1.33;;;;;;;;5110639;27;45589;-75
2022/11/24 06:24:13;;;;;;;;;4.33;3.33;;;;;;;;5110513;27;45922;-75
2022/11/24 06:26:39;;;;;;;;;3.67;2.00;;;;;;;;5106739;27;45755;-76
2022/11/24 06:29:04;;;;;;;;;16.67;16.33;;;;;;;;5102322;27;46008;-73
2022/11/24 06:31:29;;;;;;;;;7.33;5.67;;;;;;;;5083193;27;45942;-74
2022/11/24 06:33:54;;;;;;;;;5.00;4.00;;;;;;;;5097395;27;45794;-72
2022/11/24 06:36:20;;;;;;;;;4.00;3.00;;;;;;;;5100889;27;45436;-73
2022/11/24 06:38:45;;;;;;;;;4.67;3.33;;;;;;;;5101901;27;45986;-74
2022/11/24 06:41:11;;;;;;;;;3.33;3.00;;;;;;;;5114980;27;45680;-73
2022/11/24 06:43:37;;;;;;;;;5.33;3.00;;;;;;;;5109970;27;45939;-73
2022/11/24 06:46:02;;;;;;;;;4.00;1.00;;;;;;;;5107512;27;45791;-70
2022/11/24 06:48:28;;;;;;;;;0.67;0.67;;;;;;;;5101697;27;46870;-70
2022/11/24 06:50:57;;;;;;;;;4.00;1.00;;;;;;;;5101472;27;45461;-71
2022/11/24 06:53:22;;;;;;;;;1.67;1.67;;;;;;;;5110402;27;46798;-70
2022/11/24 06:55:48;;;;;;;;;2.00;1.00;;;;;;;;5084158;27;46163;-73
2022/11/24 06:58:14;;;;;;;;;4.67;2.33;;;;;;;;5101620;27;45761;-70
2022/11/24 07:00:39;;;;;;;;;2.67;2.00;;;;;;;;5083823;27;45845;-72
2022/11/24 07:03:04;;;;;;;;;2.67;2.00;;;;;;;;5098886;27;45517;-71
2022/11/24 07:05:29;;;;;;;;;2.67;2.00;;;;;;;;5086902;27;46833;-69
2022/11/24 07:07:55;;;;;;;;;5.00;2.33;;;;;;;;5085328;27;46440;-73
2022/11/24 07:10:20;;;;;;;;;4.67;4.00;;;;;;;;5100611;27;45729;-73
2022/11/24 07:12:45;;;;;;;;;1.67;1.00;;;;;;;;5100976;27;45506;-71
2022/11/24 07:15:11;;;;;;;;;2.67;2.67;;;;;;;;5084690;27;45855;-71
2022/11/24 07:17:37;;;;;;;;;3.33;1.00;;;;;;;;5093297;27;46545;-71
2022/11/24 07:20:03;;;;;;;;;5.00;2.00;;;;;;;;5110084;27;45603;-71
2022/11/24 07:22:28;;;;;;;;;4.33;3.00;;;;;;;;5106968;27;45512;-72
2022/11/24 07:24:53;;;;;;;;;4.00;2.67;;;;;;;;5109302;27;45629;-70
2022/11/24 07:27:19;;;;;;;;;3.00;3.00;;;;;;;;5104048;27;45801;-70
2022/11/24 07:29:44;;;;;;;;;3.67;3.00;;;;;;;;5115860;27;45532;-69
2022/11/24 07:32:09;;;;;;;;;5.67;3.00;;;;;;;;5115105;27;45473;-71
2022/11/24 07:34:35;;;;;;;;;2.67;2.33;;;;;;;;5100258;27;45654;-71
2022/11/24 07:37:00;;;;;;;;;2.00;2.00;;;;;;;;5113732;27;45383;-69
2022/11/24 07:39:25;;;;;;;;;7.67;3.00;;;;;;;;5116245;27;45363;-70
2022/11/24 07:41:51;;;;;;;;;4.00;3.00;;;;;;;;5096574;27;45727;-69
2022/11/24 07:44:16;;;;;;;;;6.00;4.00;;;;;;;;5115650;27;45916;-70
2022/11/24 07:46:41;;;;;;;;;6.00;4.33;;;;;;;;5102576;27;46171;-73
2022/11/24 07:49:06;;;;;;;;;3.00;3.00;;;;;;;;5111076;27;45814;-72
2022/11/24 07:51:32;;;;;;;;;8.33;5.67;;;;;;;;5114401;27;45398;-69
2022/11/24 07:53:57;;;;;;;;;4.33;3.00;;;;;;;;5119081;27;45356;-72
2022/11/24 07:56:22;;;;;;;;;2.00;2.00;;;;;;;;5103446;27;45788;-71
2022/11/24 07:58:47;;;;;;;;;6.00;2.33;;;;;;;;5110347;27;45537;-68
2022/11/24 08:01:16;;;;;;;;;5.67;3.00;;;;;;;;5107657;27;45646;-70
2022/11/24 08:03:42;;;;;;;;;5.00;4.00;;;;;;;;5117933;27;45788;-69
2022/11/24 08:06:08;;;;;;;;;6.00;5.00;;;;;;;;5121650;27;45969;-70
2022/11/24 08:08:33;;;;;;;;;5.33;2.67;;;;;;;;5111447;27;45434;-71
2022/11/24 08:11:02;;;;;;;;;3.33;3.33;;;;;;;;5111606;27;45334;-71
2022/11/24 08:13:28;;;;;;;;;6.00;6.00;;;;;;;;5093209;27;46647;-72
2022/11/24 08:15:53;;;;;;;;;6.33;4.00;;;;;;;;5098375;27;45682;-73
2022/11/24 08:18:18;;;;;;;;;7.67;5.00;;;;;;;;5088403;27;45464;-71
2022/11/24 08:20:43;;;;;;;;;5.00;4.00;;;;;;;;5095213;27;45623;-72
2022/11/24 08:23:08;;;;;;;;;4.33;3.67;;;;;;;;5101165;27;45810;-71
2022/11/24 08:25:34;;;;;;;;;3.67;3.00;;;;;;;;5094574;27;45707;-70
2022/11/24 08:28:00;;;;;;;;;7.33;5.00;;;;;;;;5095162;27;45684;-71
2022/11/24 08:30:25;;;;;;;;;9.67;6.00;;;;;;;;5091751;27;45702;-71
2022/11/24 08:32:51;;;;;;;;;7.00;3.00;;;;;;;;5099551;27;45888;-71
2022/11/24 08:35:16;;;;;;;;;8.33;4.67;;;;;;;;5089545;27;47326;-71
2022/11/24 08:37:41;;;;;;;;;7.33;4.00;;;;;;;;5098863;27;45636;-72
2022/11/24 08:40:07;;;;;;;;;11.33;4.67;;;;;;;;5099814;27;45703;-73
2022/11/24 08:42:32;;;;;;;;;6.33;4.00;;;;;;;;5109326;27;45831;-71
2022/11/24 08:44:57;;;;;;;;;5.00;4.33;;;;;;;;5078387;27;45620;-70
2022/11/24 08:47:22;;;;;;;;;2.33;2.33;;;;;;;;5075024;27;45691;-74
2022/11/24 08:49:48;;;;;;;;;5.67;3.33;;;;;;;;5091894;27;45877;-71
2022/11/24 08:52:14;;;;;;;;;8.00;3.33;;;;;;;;5086062;27;45706;-70
2022/11/24 08:54:39;;;;;;;;;4.67;2.33;;;;;;;;5082990;27;45558;-72
2022/11/24 08:57:05;;;;;;;;;4.00;2.00;;;;;;;;5081510;27;45468;-72
2022/11/24 08:59:30;;;;;;;;;3.00;3.00;;;;;;;;5094624;27;45463;-71
2022/11/24 09:01:55;;;;;;;;;6.00;3.33;;;;;;;;5091623;27;45270;-71
2022/11/24 09:04:20;;;;;;;;;7.33;3.33;;;;;;;;5082874;27;45428;-71
2022/11/24 09:06:46;;;;;;;;;5.33;2.67;;;;;;;;5087142;27;45423;-72
2022/11/24 09:09:11;;;;;;;;;2.00;2.00;;;;;;;;5077937;27;45640;-70
2022/11/24 09:11:37;;;;;;;;;9.00;4.67;;;;;;;;5087237;27;45716;-70
2022/11/24 09:14:02;;;;;;;;;3.00;3.00;;;;;;;;5090169;27;45350;-69
2022/11/24 09:16:28;;;;;;;;;5.75;3.00;;;;;;;;5108537;27;45571;-71
2022/11/24 09:19:04;;;;;;;;;5.75;3.00;;;;;;;;5109565;27;45514;-70
2022/11/24 09:21:30;;;;;;;;;3.00;3.00;;;;;;;;5078005;27;45436;-73
2022/11/24 09:23:56;;;;;;;;;7.25;3.00;;;;;;;;5100940;27;45540;-70
2022/11/24 09:26:21;;;;;;;;;4.00;3.00;;;;;;;;5092189;27;45690;-72
2022/11/24 09:28:47;;;;;;;;;2.25;2.25;;;;;;;;5112273;27;45870;-71
2022/11/24 09:31:13;;;;;;;;;2.50;1.00;;;;;;;;5112579;27;45036;-72
2022/11/24 09:33:39;;;;;;;;;5.00;2.25;;;;;;;;5113179;27;47083;-71
2022/11/24 09:36:05;;;;;;;;;3.00;2.00;;;;;;;;5113523;27;45863;-72
2022/11/24 09:38:30;;;;;;;;;5.75;3.00;;;;;;;;5115077;27;45314;-71
2022/11/24 09:40:55;;;;;;;;;2.25;2.25;;;;;;;;5107879;27;45624;-71
2022/11/24 09:43:42;;;;;;;;;5.00;3.00;;;;;;;;5103077;27;45414;-71
2022/11/24 09:46:17;;;;;;;;;6.25;0.75;;;;;;;;5088320;27;45899;-72
2022/11/24 09:48:45;;;;;;;;;2.25;2.00;;;;;;;;5101679;27;45589;-71
2022/11/24 09:51:12;;;;;;;;;7.50;4.00;;;;;;;;5085594;27;45411;-70
2022/11/24 09:53:43;;;;;;;;;4.50;3.00;;;;;;;;5112218;27;45652;-71
2022/11/24 09:56:20;;;;;;;;;2.00;2.00;;;;;;;;5109508;27;45704;-71
2022/11/24 09:58:49;;;;;;;;;3.00;2.75;;;;;;;;5101571;27;46071;-71
2022/11/24 10:01:23;;;;;;;;;3.50;2.00;;;;;;;;5103890;27;45452;-71
2022/11/24 10:03:52;;;;;;;;;3.50;3.50;;;;;;;;5099467;27;45710;-71
2022/11/24 10:06:27;;;;;;;;;3.75;2.75;;;;;;;;5111354;27;45613;-70
2022/11/24 10:09:04;;;;;;;;;2.50;2.00;;;;;;;;5100196;27;45411;-71
2022/11/24 10:11:44;;;;;;;;;5.25;3.00;;;;;;;;5105176;27;45456;-70
2022/11/24 10:14:09;;;;;;;;;1.75;1.00;;;;;;;;5117212;27;45470;-71
2022/11/24 10:16:51;;;;;;;;;4.50;1.50;;;;;;;;5094491;27;45364;-70
2022/11/24 10:19:16;;;;;;;;;3.50;2.00;;;;;;;;5113446;27;45681;-70
2022/11/24 10:21:48;;;;;;;;;0.00;0.00;;;;;;;;5113245;27;45555;-70
2022/11/24 10:24:16;;;;;;;;;3.25;1.50;;;;;;;;5113057;27;45769;-71
2022/11/24 10:26:50;;;;;;;;;5.00;1.50;;;;;;;;5096384;27;45398;-74
2022/11/24 10:29:24;;;;;;;;;6.50;4.00;;;;;;;;5114851;27;45367;-71
2022/11/24 10:31:52;;;;;;;;;0.75;0.75;;;;;;;;5114510;27;45799;-72
2022/11/24 10:34:21;;;;;;;;;3.25;1.00;;;;;;;;5103298;27;45750;-71
2022/11/24 10:36:49;;;;;;;;;5.75;1.00;;;;;;;;5113577;27;45514;-70
2022/11/24 10:39:20;;;;;;;;;4.00;1.00;;;;;;;;5113941;27;45610;-70
2022/11/24 10:41:51;;;;;;;;;3.25;1.00;;;;;;;;5106316;27;45317;-73
2022/11/24 10:44:16;;;;;;;;;5.00;3.00;;;;;;;;5104575;27;46024;-70
2022/11/24 10:46:42;;;;;;;;;2.25;2.25;;;;;;;;5101476;27;45377;-73
2022/11/24 10:49:13;;;;;;;;;4.00;1.00;;;;;;;;5088893;27;45717;-72
2022/11/24 10:51:45;;;;;;;;;4.25;2.25;;;;;;;;5104352;27;45414;-71
2022/11/24 10:54:18;;;;;;;;;5.50;2.50;;;;;;;;5114389;27;46348;-70
2022/11/24 10:56:44;;;;;;;;;11.00;4.00;;;;;;;;5102031;27;45318;-71
2022/11/24 10:59:20;;;;;;;;;2.50;1.75;;;;;;;;5099552;27;45747;-73
2022/11/24 11:01:46;;;;;;;;;4.00;2.67;;;;;;;;5089295;27;45386;-72
2022/11/24 11:04:17;;;;;;;;;2.50;2.50;;;;;;;;5099466;27;45745;-71
2022/11/24 11:06:42;;;;;;;;;2.75;1.75;;;;;;;;5110245;27;45650;-73
2022/11/24 11:09:08;;;;;;;;;5.00;3.67;;;;;;;;5101649;27;45911;-71
2022/11/24 11:11:38;;;;;;;;;3.00;3.00;;;;;;;;5101656;27;45425;-72
2022/11/24 11:14:04;;;;;;;;;3.33;2.00;;;;;;;;5106302;27;46147;-71
2022/11/24 11:16:32;;;;;;;;;4.00;3.00;;;;;;;;5094856;27;46100;-72
2022/11/24 11:19:00;;;;;;;;;2.00;2.00;;;;;;;;5081260;27;45739;-72
2022/11/24 11:21:38;;;;;;;;;4.00;3.00;;;;;;;;5103333;27;46001;-73
2022/11/24 11:24:17;;;;;;;;;6.67;3.00;;;;;;;;5093171;27;46242;-72
2022/11/24 11:26:42;;;;;;;;;8.00;3.33;;;;;;;;5095343;27;45687;-72
2022/11/24 11:29:07;;;;;;;;;6.67;4.00;;;;;;;;5093820;27;45377;-73
2022/11/24 11:31:33;;;;;;;;;6.33;5.00;;;;;;;;5102551;27;45643;-72
2022/11/24 11:34:01;;;;;;;;;2.00;1.75;;;;;;;;5080375;27;46988;-73
2022/11/24 11:36:27;;;;;;;;;2.75;1.00;;;;;;;;5101572;27;45869;-74
2022/11/24 11:38:52;;;;;;;;;3.50;3.50;;;;;;;;5105254;27;45651;-72
2022/11/24 11:41:19;;;;;;;;;3.75;2.25;;;;;;;;5111982;27;45878;-71
2022/11/24 11:43:46;;;;;;;;;7.00;5.33;;;;;;;;5109305;27;46193;-72
2022/11/24 11:46:14;;;;;;;;;6.00;3.00;;;;;;;;5086082;27;45441;-72
2022/11/24 11:48:43;;;;;;;;;4.00;4.00;;;;;;;;5094167;27;45674;-71
2022/11/24 11:51:08;;;;;;;;;3.00;2.33;;;;;;;;5084860;27;45821;-70
2022/11/24 11:53:34;;;;;;;;;2.00;2.00;;;;;;;;5091055;27;45894;-71
2022/11/24 11:56:13;;;;;;;;;5.67;3.00;;;;;;;;5085438;27;45758;-71
2022/11/24 11:58:57;;;;;;;;;14.33;4.00;;;;;;;;5081361;27;45845;-69
2022/11/24 12:01:38;;;;;;;;;3.33;3.00;;;;;;;;5089767;27;45475;-71
2022/11/24 12:04:22;;;;;;;;;3.33;3.33;;;;;;;;5092934;27;46318;-71
2022/11/24 12:07:07;;;;;;;;;2.67;2.67;;;;;;;;5087712;27;45322;-72
2022/11/24 12:09:43;;;;;;;;;5.00;3.33;;;;;;;;5094098;27;45252;-73
2022/11/24 12:12:20;;;;;;;;;3.33;2.67;;;;;;;;5085548;27;45411;-73
2022/11/24 12:15:04;;;;;;;;;4.33;2.00;;;;;;;;5079811;27;47604;-71
2022/11/24 12:17:37;;;;;;;;;3.67;2.67;;;;;;;;5081986;27;45868;-71
2022/11/24 12:20:22;;;;;;;;;7.67;5.33;;;;;;;;5072916;27;45700;-71
2022/11/24 12:23:08;;;;;;;;;9.00;2.67;;;;;;;;5080082;27;46296;-72
2022/11/24 12:25:37;;;;;;;;;8.00;4.67;;;;;;;;5087017;27;45398;-72
2022/11/24 12:28:18;;;;;;;;;7.67;4.00;;;;;;;;5079668;27;45567;-74
2022/11/24 12:31:04;;;;;;;;;5.00;2.67;;;;;;;;5090259;27;45439;-70
2022/11/24 12:33:39;;;;;;;;;6.67;6.67;;;;;;;;5075824;27;46409;-72
2022/11/24 12:36:23;;;;;;;;;6.00;3.33;;;;;;;;5093131;27;45900;-71
2022/11/24 12:38:48;;;;;;;;;5.67;3.33;;;;;;;;5092344;27;45377;-73
2022/11/24 12:41:20;;;;;;;;;5.67;3.67;;;;;;;;5096050;27;45940;-72
2022/11/24 12:43:55;;;;;;;;;4.00;4.00;;;;;;;;5093115;27;45453;-71
2022/11/24 12:46:40;;;;;;;;;10.67;4.00;;;;;;;;5093301;27;45454;-72
2022/11/24 12:49:27;;;;;;;;;10.00;6.33;;;;;;;;5085698;27;45360;-71
2022/11/24 12:52:02;;;;;;;;;6.67;4.00;;;;;;;;5089799;27;45407;-71
2022/11/24 12:54:32;;;;;;;;;7.00;6.67;;;;;;;;5068006;27;45368;-73
2022/11/24 12:57:03;;;;;;;;;9.67;6.00;;;;;;;;5093831;27;46465;-70
2022/11/24 12:59:31;;;;;;;;;10.67;7.00;;;;;;;;5094869;27;45630;-71
2022/11/24 13:01:59;;;;;;;;;11.00;4.33;;;;;;;;5093236;27;45877;-71
2022/11/24 13:04:43;;;;;;;;;9.00;6.33;;;;;;;;5075937;27;45468;-70
2022/11/24 13:07:11;;;;;;;;;7.67;5.33;;;;;;;;5084561;27;46629;-71
2022/11/24 13:09:37;;;;;;;;;6.00;5.00;;;;;;;;5074418;27;45727;-71
2022/11/24 13:12:12;;;;;;;;;7.67;5.67;;;;;;;;5084440;27;45674;-72
2022/11/24 13:14:40;;;;;;;;;3.67;1.67;;;;;;;;5094011;27;45902;-72
2022/11/24 13:17:24;;;;;;;;;11.00;7.33;;;;;;;;5087533;27;46260;-72
2022/11/24 13:19:49;;;;;;;;;6.67;4.67;;;;;;;;5067787;27;45779;-71
2022/11/24 13:22:17;;;;;;;;;7.00;4.33;;;;;;;;5088478;27;45507;-72
2022/11/24 13:24:43;;;;;;;;;7.00;5.67;;;;;;;;5092337;27;45687;-70
2022/11/24 13:27:12;;;;;;;;;5.67;4.67;;;;;;;;5086845;27;45708;-72
2022/11/24 13:29:37;;;;;;;;;5.00;4.33;;;;;;;;5092194;27;45400;-70
2022/11/24 13:32:03;;;;;;;;;9.67;5.00;;;;;;;;5091870;27;45684;-72
2022/11/24 13:34:37;;;;;;;;;8.67;4.00;;;;;;;;5092031;27;45633;-71
2022/11/24 13:37:02;;;;;;;;;7.33;3.67;;;;;;;;5090860;27;47680;-71
2022/11/24 13:39:47;;;;;;;;;5.00;4.00;;;;;;;;5074525;27;45730;-71
2022/11/24 13:42:13;;;;;;;;;4.00;2.00;;;;;;;;5080696;27;45383;-72
2022/11/24 13:44:48;;;;;;;;;6.33;6.33;;;;;;;;5092755;27;45814;-71
2022/11/24 13:47:32;;;;;;;;;7.00;3.67;;;;;;;;5085518;27;45757;-72
2022/11/24 13:49:57;;;;;;;;;3.00;2.67;;;;;;;;5079902;27;45349;-71
2022/11/24 13:52:34;;;;;;;;;7.33;3.67;;;;;;;;5088973;27;45495;-70
2022/11/24 13:55:01;;;;;;;;;8.00;3.00;;;;;;;;5090798;27;45342;-72
2022/11/24 13:57:31;;;;;;;;;8.00;5.67;;;;;;;;5074139;27;46909;-70
2022/11/24 13:59:59;;;;;;;;;6.67;2.00;;;;;;;;5086922;27;45404;-73
2022/11/24 14:02:25;;;;;;;;;5.00;4.33;;;;;;;;5073922;27;45632;-71
2022/11/24 14:04:50;;;;;;;;;7.67;3.33;;;;;;;;5077199;27;45307;-72
2022/11/24 14:07:15;;;;;;;;;3.00;2.67;;;;;;;;5086493;27;45647;-73
2022/11/24 14:09:43;;;;;;;;;3.00;3.00;;;;;;;;5089356;27;45328;-72
2022/11/24 14:12:12;;;;;;;;;5.00;2.67;;;;;;;;5085702;27;45830;-72
2022/11/24 14:14:37;;;;;;;;;3.67;2.33;;;;;;;;5098113;27;45470;-72
2022/11/24 14:17:19;;;;;;;;;7.33;4.00;;;;;;;;5073767;27;46158;-73
2022/11/24 14:19:46;;;;;;;;;5.67;4.00;;;;;;;;5086777;27;45466;-71
2022/11/24 14:22:17;;;;;;;;;6.33;3.67;;;;;;;;5086294;27;45574;-71
2022/11/24 14:24:44;;;;;;;;;5.67;5.00;;;;;;;;5092205;27;45442;-73
2022/11/24 14:27:13;;;;;;;;;8.67;3.67;;;;;;;;5092871;27;46653;-72
2022/11/24 14:29:50;;;;;;;;;4.00;4.00;;;;;;;;5093501;27;45320;-70
2022/11/24 14:32:15;;;;;;;;;6.00;3.00;;;;;;;;5092114;27;45542;-71
2022/11/24 14:34:40;;;;;;;;;4.67;4.00;;;;;;;;5090788;27;45638;-71
2022/11/24 14:37:08;;;;;;;;;7.33;6.33;;;;;;;;5065296;27;47060;-70
2022/11/24 14:39:38;;;;;;;;;5.67;5.00;;;;;;;;5074068;27;45511;-70
2022/11/24 14:42:06;;;;;;;;;13.33;6.00;;;;;;;;5086042;27;45460;-72
2022/11/24 14:44:42;;;;;;;;;4.33;2.00;;;;;;;;5060474;27;46182;-71
2022/11/24 14:47:25;;;;;;;;;7.00;5.33;;;;;;;;5085150;27;46530;-71